createdAt,value
2023-01-05T00:01:49.132Z,59.17
2023-01-05T00:04:16.058Z,56.00
2023-01-05T00:06:42.626Z,53.75
2023-01-05T00:09:12.271Z,57.28
2023-01-05T00:11:57.042Z,51.85
2023-01-05T00:14:44.847Z,56.97
2023-01-05T00:17:32.140Z,54.83
2023-01-05T00:20:17.444Z,56.58
2023-01-05T00:22:52.121Z,54.75
2023-01-05T00:25:24.043Z,57.70
2023-01-05T00:27:51.822Z,54.90
2023-01-05T00:30:21.301Z,52.63
2023-01-05T00:32:48.358Z,53.00
2023-01-05T00:35:15.873Z,49.95
2023-01-05T00:37:43.223Z,52.75
2023-01-05T00:40:12.784Z,60.85
2023-01-05T00:42:39.618Z,59.60
2023-01-05T00:45:08.194Z,55.17
2023-01-05T00:47:34.599Z,57.35
2023-01-05T00:50:01.209Z,54.13
2023-01-05T00:52:27.773Z,55.83
2023-01-05T00:54:54.298Z,55.38
2023-01-05T00:57:20.751Z,56.20
2023-01-05T00:59:47.196Z,55.25
2023-01-05T01:02:14.689Z,57.05
2023-01-05T01:04:41.237Z,51.35
2023-01-05T01:07:07.867Z,58.13
2023-01-05T01:09:34.409Z,58.13
2023-01-05T01:12:01.232Z,56.20
2023-01-05T01:14:28.052Z,52.88
2023-01-05T01:16:54.551Z,59.42
2023-01-05T01:19:24.459Z,51.40
2023-01-05T01:21:51.144Z,52.67
2023-01-05T01:24:23.126Z,53.75
2023-01-05T01:26:49.678Z,49.63
2023-01-05T01:29:17.385Z,51.08
2023-01-05T01:31:46.703Z,53.83
2023-01-05T01:34:13.363Z,62.13
2023-01-05T01:36:39.964Z,61.08
2023-01-05T01:39:06.578Z,53.03
2023-01-05T01:41:33.070Z,49.15
2023-01-05T01:43:59.456Z,53.53
2023-01-05T01:46:26.944Z,51.58
2023-01-05T01:48:59.016Z,49.20
2023-01-05T01:51:44.862Z,55.05
2023-01-05T01:54:15.736Z,52.97
2023-01-05T01:56:46.884Z,52.38
2023-01-05T01:59:13.589Z,56.33
2023-01-05T02:01:40.572Z,58.13
2023-01-05T02:04:07.975Z,54.15
2023-01-05T02:06:34.504Z,63.25
2023-01-05T02:09:01.107Z,61.28
2023-01-05T02:11:33.330Z,61.72
2023-01-05T02:14:17.952Z,64.57
2023-01-05T02:16:47.323Z,64.85
2023-01-05T02:19:41.496Z,57.17
2023-01-05T02:22:46.587Z,61.15
2023-01-05T02:26:00.959Z,57.22
2023-01-05T02:28:51.934Z,62.35
2023-01-05T02:31:31.714Z,62.08
2023-01-05T02:34:07.469Z,61.28
2023-01-05T02:36:59.833Z,56.65
2023-01-05T02:39:47.116Z,59.67
2023-01-05T02:42:18.373Z,74.00
2023-01-05T02:44:44.909Z,77.05
2023-01-05T02:47:27.689Z,76.90
2023-01-05T02:50:01.743Z,81.28
2023-01-05T02:52:33.448Z,79.50
2023-01-05T02:55:05.504Z,73.72
2023-01-05T02:57:48.347Z,77.50
2023-01-05T03:00:28.899Z,74.00
2023-01-05T03:03:05.671Z,74.38
2023-01-05T03:05:39.048Z,78.20
2023-01-05T03:08:10.436Z,73.10
2023-01-05T03:13:43.902Z,71.47
2023-01-05T03:16:14.919Z,65.50
2023-01-05T03:18:59.998Z,64.15
2023-01-05T03:21:28.279Z,75.68
2023-01-05T03:24:16.122Z,50.58
2023-01-05T03:27:02.493Z,64.00
2023-01-05T03:29:47.200Z,71.50
2023-01-05T03:32:44.231Z,76.78
2023-01-05T03:35:31.616Z,78.90
2023-01-05T03:38:00.918Z,79.35
2023-01-05T03:40:33.281Z,81.88
2023-01-05T03:43:01.085Z,54.15
2023-01-05T03:45:38.104Z,56.42
2023-01-05T03:48:05.007Z,53.20
2023-01-05T03:50:31.494Z,58.38
2023-01-05T03:52:57.981Z,61.60
2023-01-05T03:55:24.415Z,46.88
2023-01-05T03:57:50.843Z,60.88
2023-01-05T04:00:17.530Z,47.08
2023-01-05T04:02:44.066Z,51.63
2023-01-05T04:05:10.533Z,66.38
2023-01-05T04:07:36.942Z,52.47
2023-01-05T04:10:04.433Z,68.80
2023-01-05T04:12:31.001Z,74.03
2023-01-05T04:14:57.409Z,59.08
2023-01-05T04:17:23.857Z,48.47
2023-01-05T04:19:50.280Z,55.03
2023-01-05T04:22:19.856Z,61.30
2023-01-05T04:24:48.827Z,56.30
2023-01-05T04:27:15.257Z,62.05
2023-01-05T04:29:41.654Z,63.08
2023-01-05T04:32:08.084Z,53.97
2023-01-05T04:34:34.563Z,62.17
2023-01-05T04:37:01.009Z,58.60
2023-01-05T04:39:27.401Z,49.50
2023-01-05T04:41:54.246Z,44.90
2023-01-05T04:44:20.660Z,48.92
2023-01-05T04:46:47.121Z,41.00
2023-01-05T04:49:13.683Z,40.40
2023-01-05T04:51:40.092Z,41.78
2023-01-05T04:54:06.868Z,47.08
2023-01-05T04:56:33.291Z,37.78
2023-01-05T04:58:59.789Z,54.85
2023-01-05T05:01:26.426Z,51.08
2023-01-05T05:03:53.186Z,51.67
2023-01-05T05:06:19.850Z,45.50
2023-01-05T05:08:46.271Z,49.25
2023-01-05T05:11:12.698Z,47.03
2023-01-05T05:13:39.125Z,61.38
2023-01-05T05:16:06.047Z,54.13
2023-01-05T05:18:32.538Z,54.72
2023-01-05T05:20:59.012Z,60.15
2023-01-05T05:23:25.710Z,56.80
2023-01-05T05:25:53.006Z,62.63
2023-01-05T05:28:20.380Z,51.75
2023-01-05T05:30:49.503Z,55.40
2023-01-05T05:33:15.959Z,63.60
2023-01-05T05:35:42.444Z,65.32
2023-01-05T05:38:09.087Z,61.30
2023-01-05T05:40:35.554Z,52.67
2023-01-05T05:43:01.994Z,45.05
2023-01-05T05:45:28.448Z,58.60
2023-01-05T05:47:54.899Z,57.70
2023-01-05T05:50:21.309Z,53.67
2023-01-05T05:52:47.871Z,46.15
2023-01-05T05:55:14.414Z,39.42
2023-01-05T05:57:40.817Z,42.42
2023-01-05T06:00:07.788Z,40.97
2023-01-05T06:02:34.319Z,35.63
2023-01-05T06:05:00.803Z,45.75
2023-01-05T06:07:27.221Z,36.75
2023-01-05T06:09:53.637Z,40.58
2023-01-05T06:12:20.140Z,40.42
2023-01-05T06:14:46.581Z,34.38
2023-01-05T06:17:12.978Z,40.05
2023-01-05T06:19:39.441Z,40.25
2023-01-05T06:22:05.860Z,35.35
2023-01-05T06:24:32.230Z,45.10
2023-01-05T06:26:58.679Z,34.03
2023-01-05T06:29:25.101Z,41.30
2023-01-05T06:31:51.558Z,38.15
2023-01-05T06:34:18.000Z,36.83
2023-01-05T06:36:44.514Z,41.47
2023-01-05T06:39:10.927Z,40.47
2023-01-05T06:41:37.356Z,45.33
2023-01-05T06:44:05.474Z,47.03
2023-01-05T06:46:31.866Z,43.05
2023-01-05T06:48:58.258Z,42.05
2023-01-05T06:51:24.676Z,36.53
2023-01-05T06:53:51.089Z,34.70
2023-01-05T06:56:17.521Z,33.33
2023-01-05T06:58:43.984Z,35.53
2023-01-05T07:01:10.540Z,40.75
2023-01-05T07:03:37.003Z,27.70
2023-01-05T07:06:07.623Z,32.45
2023-01-05T07:08:36.417Z,26.55
2023-01-05T07:11:02.847Z,30.67
2023-01-05T07:13:29.273Z,26.58
2023-01-05T07:15:55.715Z,31.13
2023-01-05T07:18:22.292Z,29.70
2023-01-05T07:20:48.716Z,29.77
2023-01-05T07:23:21.556Z,28.50
2023-01-05T07:25:48.003Z,25.70
2023-01-05T07:28:14.395Z,27.23
2023-01-05T07:30:41.008Z,26.20
2023-01-05T07:33:07.450Z,25.70
2023-01-05T07:35:33.847Z,21.88
2023-01-05T07:38:00.279Z,23.60
2023-01-05T07:40:27.146Z,26.80
2023-01-05T07:42:55.011Z,26.67
2023-01-05T07:45:21.714Z,28.35
2023-01-05T07:47:48.130Z,28.13
2023-01-05T07:50:14.625Z,31.67
2023-01-05T07:52:41.091Z,35.05
2023-01-05T07:55:08.171Z,27.30
2023-01-05T07:57:34.681Z,24.40
2023-01-05T08:00:01.061Z,28.75
2023-01-05T08:02:32.225Z,25.88
2023-01-05T08:05:02.152Z,26.95
2023-01-05T08:07:28.627Z,29.23
2023-01-05T08:10:16.420Z,31.65
2023-01-05T08:13:01.344Z,33.03
2023-01-05T08:15:27.775Z,29.27
2023-01-05T08:17:54.179Z,35.08
2023-01-05T08:20:20.713Z,29.77
2023-01-05T08:22:51.540Z,30.77
2023-01-05T08:25:17.995Z,27.05
2023-01-05T08:27:44.611Z,30.42
2023-01-05T08:30:12.240Z,31.35
2023-01-05T08:32:39.367Z,61.22
2023-01-05T08:35:06.876Z,35.33
2023-01-05T08:37:33.365Z,29.85
2023-01-05T08:39:59.786Z,28.05
2023-01-05T08:42:26.246Z,35.80
2023-01-05T08:44:52.687Z,30.23
2023-01-05T08:47:20.105Z,30.05
2023-01-05T08:49:47.220Z,26.90
2023-01-05T08:52:13.682Z,32.22
2023-01-05T08:54:40.162Z,34.70
2023-01-05T08:57:06.686Z,27.90
2023-01-05T08:59:33.115Z,29.10
2023-01-05T09:01:59.686Z,27.30
2023-01-05T09:04:27.604Z,32.15
2023-01-05T09:06:54.459Z,31.10
2023-01-05T09:09:24.291Z,35.58
2023-01-05T09:11:50.976Z,37.03
2023-01-05T09:14:18.771Z,33.33
2023-01-05T09:19:31.740Z,33.72
2023-01-05T09:21:58.280Z,38.03
2023-01-05T09:24:24.898Z,34.38
2023-01-05T09:26:51.404Z,30.15
2023-01-05T09:29:17.951Z,36.55
2023-01-05T09:31:44.481Z,36.38
2023-01-05T09:34:11.095Z,32.80
2023-01-05T09:36:40.878Z,30.67
2023-01-05T09:39:07.686Z,36.92
2023-01-05T09:41:42.074Z,43.28
2023-01-05T09:44:14.484Z,40.13
2023-01-05T09:46:45.787Z,39.05
2023-01-05T09:49:15.228Z,31.50
2023-01-05T09:51:42.567Z,33.85
2023-01-05T09:54:19.196Z,36.53
2023-01-05T09:59:41.294Z,30.70
2023-01-05T10:02:29.310Z,33.90
2023-01-05T10:04:57.245Z,39.00
2023-01-05T10:07:30.434Z,37.33
2023-01-05T10:10:01.831Z,37.55
2023-01-05T10:12:59.723Z,32.50
2023-01-05T10:15:27.524Z,38.28
2023-01-05T10:17:54.136Z,36.42
2023-01-05T10:20:43.897Z,45.67
2023-01-05T10:23:28.621Z,33.03
2023-01-05T10:26:05.392Z,34.42
2023-01-05T10:28:40.783Z,64.43
2023-01-05T10:31:24.115Z,59.13
2023-01-05T10:34:28.589Z,45.38
2023-01-05T10:37:27.596Z,41.25
2023-01-05T10:40:06.096Z,37.75
2023-01-05T10:42:51.232Z,35.28
2023-01-05T10:45:20.597Z,31.70
2023-01-05T10:47:49.221Z,41.33
2023-01-05T10:50:37.488Z,29.30
2023-01-05T10:53:16.297Z,30.73
2023-01-05T10:56:03.633Z,31.13
2023-01-05T10:58:35.186Z,31.73
2023-01-05T11:01:04.760Z,31.83
2023-01-05T11:04:26.570Z,35.40
2023-01-05T11:06:31.565Z,53.88
2023-01-05T11:09:22.838Z,32.53
2023-01-05T11:12:01.242Z,36.17
2023-01-05T11:14:32.759Z,29.27
2023-01-05T11:17:04.510Z,40.60
2023-01-05T11:19:35.868Z,30.67
2023-01-05T11:24:34.090Z,33.92
2023-01-05T11:27:03.396Z,49.00
2023-01-05T11:29:30.682Z,40.55
2023-01-05T11:32:12.145Z,31.17
2023-01-05T11:34:47.803Z,39.35
2023-01-05T11:37:26.540Z,39.22
2023-01-05T11:40:01.669Z,35.90
2023-01-05T11:42:34.764Z,42.78
2023-01-05T11:45:28.629Z,45.67
2023-01-05T11:47:58.813Z,59.08
2023-01-05T11:50:31.807Z,62.03
2023-01-05T11:53:02.467Z,71.50
2023-01-05T11:55:36.659Z,56.67
2023-01-05T11:58:22.976Z,75.32
2023-01-05T12:01:25.513Z,67.85
2023-01-05T12:04:13.371Z,59.03
2023-01-05T12:06:48.951Z,49.92
2023-01-05T12:09:50.452Z,42.80
2023-01-05T12:12:40.733Z,49.00
2023-01-05T12:15:31.167Z,44.47
2023-01-05T12:18:44.260Z,48.55
2023-01-05T12:21:20.318Z,40.53
2023-01-05T12:24:23.944Z,38.20
2023-01-05T12:26:56.580Z,37.90
2023-01-05T12:35:45.045Z,43.30
2023-01-05T12:38:26.664Z,42.97
2023-01-05T12:43:50.419Z,35.50
2023-01-05T12:46:23.435Z,39.30
2023-01-05T12:49:00.101Z,39.00
2023-01-05T12:51:28.807Z,45.65
2023-01-05T12:53:59.507Z,38.55
2023-01-05T12:56:34.188Z,39.78
2023-01-05T12:59:42.239Z,40.63
2023-01-05T13:02:21.195Z,36.42
2023-01-05T13:04:58.718Z,49.85
2023-01-05T13:07:38.162Z,45.78
2023-01-05T13:10:20.863Z,43.67
2023-01-05T13:12:53.331Z,50.13
2023-01-05T13:15:29.600Z,40.70
2023-01-05T13:17:59.056Z,46.20
2023-01-05T13:20:40.485Z,49.90
2023-01-05T13:23:18.179Z,45.40
2023-01-05T13:25:54.105Z,48.13
2023-01-05T13:28:24.542Z,42.28
2023-01-05T13:31:22.642Z,50.15
2023-01-05T13:34:09.853Z,50.72
2023-01-05T13:36:59.843Z,51.85
2023-01-05T13:40:00.571Z,46.38
2023-01-05T13:42:50.151Z,60.90
2023-01-05T13:45:40.661Z,109.88
2023-01-05T13:48:57.503Z,97.30
2023-01-05T13:51:43.094Z,59.60
2023-01-05T13:55:07.820Z,87.15
2023-01-05T13:57:42.536Z,105.82
2023-01-05T14:00:33.093Z,497.23
2023-01-05T14:03:08.000Z,183.88
2023-01-05T14:05:46.901Z,112.25
2023-01-05T14:08:25.795Z,140.02
2023-01-05T14:11:10.426Z,51.70
2023-01-05T14:13:46.071Z,55.05
2023-01-05T14:16:35.182Z,120.95
2023-01-05T14:19:21.496Z,165.55
2023-01-05T14:21:54.491Z,154.50
2023-01-05T14:24:36.692Z,130.27
2023-01-05T14:27:11.606Z,85.28
2023-01-05T14:32:42.703Z,73.32
2023-01-05T14:35:12.231Z,71.38
2023-01-05T14:37:42.876Z,81.90
2023-01-05T14:40:20.629Z,62.22
2023-01-05T14:42:48.960Z,60.97
2023-01-05T14:45:23.165Z,48.83
2023-01-05T14:47:54.050Z,96.22
2023-01-05T14:50:39.058Z,69.20
2023-01-05T14:53:14.494Z,50.15
2023-01-05T14:55:52.893Z,59.78
2023-01-05T14:58:55.633Z,75.80
2023-01-05T15:01:28.297Z,69.15
2023-01-05T15:04:05.054Z,76.32
2023-01-05T15:06:50.156Z,85.07
2023-01-05T15:09:58.485Z,69.40
2023-01-05T15:12:36.161Z,53.53
2023-01-05T15:15:34.548Z,110.90
2023-01-05T15:18:22.712Z,87.57
2023-01-05T15:21:29.162Z,76.72
2023-01-05T15:24:23.368Z,99.75
2023-01-05T15:27:10.196Z,90.97
2023-01-05T15:30:01.750Z,81.75
2023-01-05T15:35:26.502Z,84.75
2023-01-05T15:37:53.192Z,73.10
2023-01-05T15:40:22.744Z,77.75
2023-01-05T15:42:52.690Z,97.57
2023-01-05T15:45:23.428Z,82.80
2023-01-05T15:47:51.108Z,71.28
2023-01-05T15:50:25.168Z,86.68
2023-01-05T15:52:57.294Z,95.18
2023-01-05T15:55:25.023Z,88.50
2023-01-05T15:57:54.007Z,87.93
2023-01-05T16:00:24.281Z,89.43
2023-01-05T16:02:50.893Z,97.78
2023-01-05T16:05:17.390Z,80.15
2023-01-05T16:07:50.533Z,82.72
2023-01-05T16:10:20.113Z,102.55
2023-01-05T16:12:49.419Z,93.88
2023-01-05T16:15:20.469Z,84.18
2023-01-05T16:17:47.969Z,88.43
2023-01-05T16:20:20.123Z,88.05
2023-01-05T16:23:14.448Z,79.28
2023-01-05T16:25:48.816Z,88.90
2023-01-05T16:28:18.699Z,84.22
2023-01-05T16:30:47.153Z,99.75
2023-01-05T16:33:27.195Z,80.22
2023-01-05T16:36:19.759Z,97.32
2023-01-05T16:38:46.612Z,93.07
2023-01-05T16:41:20.369Z,83.18
2023-01-05T16:44:01.379Z,79.40
2023-01-05T16:46:30.847Z,82.53
2023-01-05T16:49:25.242Z,90.80
2023-01-05T16:51:52.977Z,91.35
2023-01-05T16:54:23.519Z,122.43
2023-01-05T16:59:40.201Z,98.88
2023-01-05T17:02:28.419Z,108.07
2023-01-05T17:04:55.130Z,87.10
2023-01-05T17:07:22.209Z,83.45
2023-01-05T17:09:49.263Z,73.85
2023-01-05T17:12:15.894Z,77.40
2023-01-05T17:14:44.239Z,83.90
2023-01-05T17:17:12.736Z,109.03
2023-01-05T17:19:39.477Z,78.72
2023-01-05T17:22:10.277Z,85.80
2023-01-05T17:24:38.863Z,87.57
2023-01-05T17:27:05.315Z,74.63
2023-01-05T17:29:32.823Z,69.53
2023-01-05T17:31:59.582Z,78.20
2023-01-05T17:34:26.215Z,77.63
2023-01-05T17:36:58.762Z,67.55
2023-01-05T17:39:25.897Z,62.70
2023-01-05T17:41:52.740Z,79.10
2023-01-05T17:44:19.374Z,96.28
2023-01-05T17:46:47.343Z,75.88
2023-01-05T17:49:19.320Z,86.05
2023-01-05T17:51:45.993Z,68.97
2023-01-05T17:54:12.562Z,72.55
2023-01-05T17:56:39.203Z,51.72
2023-01-05T17:59:05.863Z,58.63
2023-01-05T18:01:33.911Z,75.55
2023-01-05T18:04:01.522Z,71.70
2023-01-05T18:06:28.158Z,70.15
2023-01-05T18:08:54.823Z,74.40
2023-01-05T18:11:21.476Z,66.53
2023-01-05T18:13:47.987Z,82.82
2023-01-05T18:16:15.219Z,69.40
2023-01-05T18:18:41.938Z,68.03
2023-01-05T18:21:08.487Z,66.82
2023-01-05T18:23:35.273Z,65.78
2023-01-05T18:26:06.729Z,62.40
2023-01-05T18:31:00.961Z,70.43
2023-01-05T18:33:27.822Z,68.32
2023-01-05T18:38:21.817Z,70.95
2023-01-05T18:40:50.015Z,100.63
2023-01-05T18:43:17.326Z,77.30
2023-01-05T18:45:44.232Z,71.72
2023-01-05T18:48:10.741Z,70.93
2023-01-05T18:50:49.849Z,63.00
2023-01-05T18:53:17.487Z,62.65
2023-01-05T18:55:43.889Z,66.28
2023-01-05T18:58:11.447Z,61.88
2023-01-05T19:00:42.698Z,64.22
2023-01-05T19:03:10.083Z,65.20
2023-01-05T19:05:44.250Z,71.85
2023-01-05T19:08:12.723Z,62.33
2023-01-05T19:10:39.176Z,64.32
2023-01-05T19:13:06.101Z,63.67
2023-01-05T19:15:34.172Z,52.75
2023-01-05T19:18:01.035Z,58.00
2023-01-05T19:20:27.529Z,56.63
2023-01-05T19:22:54.021Z,67.15
2023-01-05T19:25:20.807Z,59.25
2023-01-05T19:27:47.272Z,63.72
2023-01-05T19:30:15.003Z,59.17
2023-01-05T19:32:41.472Z,69.68
2023-01-05T19:35:08.124Z,61.90
2023-01-05T19:37:35.668Z,63.92
2023-01-05T19:40:02.805Z,56.03
2023-01-05T19:42:31.807Z,62.10
2023-01-05T19:44:58.277Z,60.80
2023-01-05T19:47:24.837Z,60.35
2023-01-05T19:49:53.013Z,52.47
2023-01-05T19:52:19.492Z,69.28
2023-01-05T19:54:45.993Z,72.07
2023-01-05T19:57:12.414Z,70.28
2023-01-05T19:59:38.994Z,62.15
2023-01-05T20:02:06.296Z,69.93
2023-01-05T20:04:32.859Z,76.85
2023-01-05T20:07:01.840Z,76.68
2023-01-05T20:09:29.462Z,77.18
2023-01-05T20:12:05.795Z,68.32
2023-01-05T20:14:39.614Z,62.22
2023-01-05T20:17:08.799Z,65.85
2023-01-05T20:19:36.738Z,52.50
2023-01-05T20:22:04.903Z,55.00
2023-01-05T20:24:33.278Z,55.53
2023-01-05T20:27:02.932Z,52.60
2023-01-05T20:29:29.682Z,74.82
2023-01-05T20:32:00.505Z,73.40
2023-01-05T20:34:31.843Z,51.75
2023-01-05T20:36:59.651Z,97.05
2023-01-05T20:39:26.389Z,94.93
2023-01-05T20:41:54.008Z,75.63
2023-01-05T20:44:24.563Z,46.90
2023-01-05T20:46:53.751Z,53.43
2023-01-05T20:49:21.343Z,42.78
2023-01-05T20:51:48.264Z,50.28
2023-01-05T20:54:15.589Z,115.70
2023-01-05T20:56:43.722Z,90.63
2023-01-05T20:59:24.599Z,51.33
2023-01-05T21:01:51.972Z,77.25
2023-01-05T21:04:19.728Z,53.80
2023-01-05T21:06:46.867Z,64.75
2023-01-05T21:09:14.173Z,69.80
2023-01-05T21:11:41.741Z,52.55
2023-01-05T21:14:08.922Z,50.60
2023-01-05T21:16:39.125Z,78.93
2023-01-05T21:19:10.031Z,39.97
2023-01-05T21:21:37.396Z,52.88
2023-01-05T21:24:07.713Z,58.47
2023-01-05T21:26:34.213Z,84.25
2023-01-05T21:29:00.655Z,71.20
2023-01-05T21:31:27.458Z,73.10
2023-01-05T21:33:54.305Z,54.47
2023-01-05T21:36:26.973Z,65.07
2023-01-05T21:39:03.519Z,68.40
2023-01-05T21:41:50.878Z,83.85
2023-01-05T21:44:18.268Z,105.15
2023-01-05T21:46:44.875Z,50.25
2023-01-05T21:49:11.971Z,71.35
2023-01-05T21:51:57.393Z,67.35
2023-01-05T21:54:43.171Z,49.33
2023-01-05T21:57:10.213Z,52.22
2023-01-05T21:59:36.887Z,73.53
2023-01-05T22:02:03.983Z,73.22
2023-01-05T22:04:30.477Z,59.55
2023-01-05T22:06:57.372Z,49.45
2023-01-05T22:09:23.876Z,66.85
2023-01-05T22:11:50.352Z,96.15
2023-01-05T22:14:16.788Z,101.32
2023-01-05T22:16:43.352Z,102.75
2023-01-05T22:19:11.041Z,111.97
2023-01-05T22:21:37.529Z,74.72
2023-01-05T22:24:04.173Z,110.82
2023-01-05T22:26:30.657Z,93.78
2023-01-05T22:28:57.057Z,80.25
2023-01-05T22:31:27.124Z,103.65
2023-01-05T22:33:56.135Z,90.45
2023-01-05T22:36:23.821Z,65.10
2023-01-05T22:38:51.971Z,73.50
2023-01-05T22:41:21.274Z,68.78
2023-01-05T22:43:48.429Z,99.80
2023-01-05T22:46:19.160Z,73.97
2023-01-05T22:48:47.017Z,81.63
2023-01-05T22:51:14.829Z,90.57
2023-01-05T22:53:41.300Z,78.57
2023-01-05T22:56:09.244Z,79.50
2023-01-05T22:58:36.468Z,86.45
2023-01-05T23:01:20.043Z,78.18
2023-01-05T23:03:46.966Z,77.40
2023-01-05T23:06:13.907Z,91.50
2023-01-05T23:08:42.874Z,85.68
2023-01-05T23:11:15.713Z,84.25
2023-01-05T23:13:42.437Z,86.65
2023-01-05T23:16:09.799Z,99.10
2023-01-05T23:18:37.736Z,89.53
2023-01-05T23:21:07.599Z,97.93
2023-01-05T23:23:34.887Z,86.13
2023-01-05T23:26:01.371Z,83.75
2023-01-05T23:28:29.121Z,79.53
2023-01-05T23:30:58.003Z,83.68
2023-01-05T23:33:26.941Z,82.05
2023-01-05T23:35:54.750Z,84.07
2023-01-05T23:38:22.542Z,84.43
2023-01-05T23:40:50.867Z,73.25
2023-01-05T23:43:20.642Z,81.05
2023-01-05T23:45:47.367Z,81.18
2023-01-05T23:48:14.270Z,79.38
2023-01-05T23:50:45.902Z,78.65
2023-01-05T23:53:13.566Z,75.88
2023-01-05T23:55:40.881Z,77.47
2023-01-05T23:58:08.013Z,68.57
